Guadalupe Mtns National Park, TX

11:33 PM MDT on October 25, 2014 (GMT -0600)
APRSWXNET Dellcity TX US | Change Station
CLOSE
Current Station
Personal Weather Station
Location: Salt Flat, TX
Elevation: 3690 ft
Nearby Weather Stations

Elev 3690 ft 31.73 °N, 104.93 °W | Updated 30 minutes ago

Clear
Clear
52 °F
Feels Like 52 °F
N
0
Wind Variable Wind from North
Gusts 0.0 mph

Today
High -- | Low -- °F
--% Chance of Precip.
Yesterday
High -- | Low -- °F
Precip. -- in
7:11 AM 6:17 PM
Waxing Crescent, 6% visible
Pressure 30.04 in
Visibility 10.0 miles
Clouds Clear
Dew Point 43 °F
Humidity 70%
Rainfall 0.00 in
Snow Depth Not available.
UV 0 out of 12
Pollen 5.50 out of 12
Air Quality Not available.
Flu Activity Local Activity
METAR KGDP 260451Z AUTO 22009KT 10SM CLR 18/03 A3024 RMK AO2 SLP171 T01780028

More Conditions Fewer Conditions

Pressure 30.04 in
Visibility 10.0 miles
Clouds Clear
Dew Point 43 °F
Humidity 70%
Rainfall 0.00 in
Snow Depth Not available.
UV 0 out of 12
Pollen 5.50 out of 12
Air Quality Not available.
Flu Activity Local Activity
METAR KGDP 260451Z AUTO 22009KT 10SM CLR 18/03 A3024 RMK AO2 SLP171 T01780028

More Conditions Fewer Conditions

10-Day Weather Forecast

Almanac

Astronomy

Oct. 25, 2014 Rise Set
Actual Time 7:11 AM MDT 6:17 PM MDT
Civil Twilight 6:46 AM MDT 6:42 PM MDT
Nautical Twilight 6:17 AM MDT 7:10 PM MDT
Astronomical Twilight 5:49 AM MDT 7:39 PM MDT
Moon 8:47 AM MDT (10/25) 7:47 PM MDT (10/25)
Length of Visible Light 11h 55m
Length of Day
11h 06m
Tomorrow will be 1m 45s shorter.
Waxing Crescent, 6% of the Moon is Illuminated
Oct 26
Waxing Crescent
Oct 30
First Quarter
Nov 6
Full
Nov 14
Last Quarter
Nov 22
New

Yesterday's Extremes

State Highs State Lows

Community

WunderPhotos

Upload Photos

1,765,112 photos uploaded!

Nearby

Snow Depth

Station Depth Elevation
No new snow has been reported.

Earthquake Activity

City Distance Mag. Time & Date
No recent earthquake activity has been reported nearby.
Minimum magnitude displayed is 2.5.

Coastal Water Temperatures

Place Temperature
No Stations Reporting

Nearby Weather Stations